Time;durP1;ratioP1;P1;durP2;ratioP2;P2;SDS_P1;SDS_P2;PMS_P1;PMS_P2;Temp;Humidity;BMP_temperature;BMP_pressure;BME280_temperature;BME280_humidity;BME280_pressure;Samples;Min_cycle;Max_cycle;Signal;HPM_P1;HPM_P2
2021/01/30 00:00:19;;;;;;;3.65;0.70;;;;;;;5.78;79.52;93924.25;5008820;28;20108;-59
2021/01/30 00:02:44;;;;;;;1.80;0.85;;;;;;;5.56;80.48;93911.88;5009835;28;20080;-59
2021/01/30 00:05:10;;;;;;;1.05;0.40;;;;;;;5.58;81.43;93919.47;5010487;28;20038;-59
2021/01/30 00:07:35;;;;;;;1.33;0.68;;;;;;;5.37;81.97;93888.31;5011339;28;20107;-60
2021/01/30 00:10:00;;;;;;;0.50;0.50;;;;;;;5.54;81.33;93916.69;5011466;28;20038;-60
2021/01/30 00:12:27;;;;;;;1.13;0.40;;;;;;;5.61;81.64;93919.66;5012008;28;20084;-59
2021/01/30 00:14:53;;;;;;;0.57;0.50;;;;;;;5.74;80.62;93926.72;5011453;28;20050;-59
2021/01/30 00:17:20;;;;;;;2.13;0.45;;;;;;;5.60;81.03;93910.19;5011262;28;20049;-60
2021/01/30 00:19:45;;;;;;;0.68;0.30;;;;;;;5.76;80.63;93904.53;5011375;28;20072;-60
2021/01/30 00:22:15;;;;;;;3.30;0.82;;;;;;;5.85;80.87;93918.56;5011175;28;20599;-59
2021/01/30 00:24:44;;;;;;;1.05;0.70;;;;;;;5.93;81.03;93925.75;5010126;28;20022;-59
2021/01/30 00:27:13;;;;;;;1.17;0.50;;;;;;;5.58;80.96;93901.00;5013073;28;20037;-59
2021/01/30 00:29:39;;;;;;;1.92;0.47;;;;;;;5.63;81.84;93887.69;5011297;28;20034;-61
2021/01/30 00:32:05;;;;;;;0.95;0.30;;;;;;;5.59;81.25;93906.00;5010964;28;20100;-60
2021/01/30 00:34:32;;;;;;;1.92;0.50;;;;;;;5.65;80.46;93904.78;5011207;28;20488;-60
2021/01/30 00:37:06;;;;;;;2.30;0.55;;;;;;;5.66;80.79;93918.75;5010786;28;20060;-60
2021/01/30 00:39:33;;;;;;;2.13;0.63;;;;;;;5.56;81.17;93919.78;5022756;23;20033;-63
2021/01/30 00:41:58;;;;;;;1.40;0.60;;;;;;;5.64;81.66;93905.88;5029669;28;20025;-60
2021/01/30 00:44:23;;;;;;;0.30;0.30;;;;;;;5.49;81.54;93911.53;5029460;28;20447;-60
2021/01/30 00:46:49;;;;;;;1.38;0.52;;;;;;;5.72;80.46;93915.69;5030549;28;20044;-61
2021/01/30 00:49:16;;;;;;;0.60;0.40;;;;;;;5.52;81.62;93908.28;5030720;28;20434;-61
2021/01/30 00:51:42;;;;;;;1.08;0.55;;;;;;;5.69;81.35;93924.22;5030391;28;20083;-62
2021/01/30 00:54:07;;;;;;;1.55;0.57;;;;;;;5.58;82.17;93941.38;5032567;28;20021;-61
2021/01/30 00:56:32;;;;;;;1.13;0.30;;;;;;;5.43;82.33;93937.25;5030747;28;20493;-62
2021/01/30 00:58:57;;;;;;;3.70;0.60;;;;;;;5.56;82.71;93925.06;5030401;28;20037;-62
2021/01/30 01:01:23;;;;;;;1.65;0.63;;;;;;;5.59;81.97;93927.09;5030335;28;20190;-60
2021/01/30 01:03:48;;;;;;;0.65;0.38;;;;;;;5.63;82.11;93935.97;5029285;28;20030;-62
2021/01/30 01:06:13;;;;;;;0.75;0.50;;;;;;;5.74;82.73;93953.09;5032446;28;20112;-61
2021/01/30 01:08:39;;;;;;;0.80;0.40;;;;;;;5.44;82.91;93944.06;5030461;28;20453;-60
2021/01/30 01:11:04;;;;;;;0.90;0.40;;;;;;;5.30;84.39;93935.44;5030147;28;20041;-62
2021/01/30 01:13:30;;;;;;;1.75;0.80;;;;;;;5.28;85.49;93957.91;5029586;28;20041;-61
2021/01/30 01:15:57;;;;;;;2.15;0.40;;;;;;;5.29;85.55;93968.16;5029099;28;20060;-60
2021/01/30 01:18:22;;;;;;;1.38;0.50;;;;;;;5.28;85.11;93965.84;5031959;28;20033;-60
2021/01/30 01:20:48;;;;;;;3.67;0.80;;;;;;;5.41;85.01;93973.66;5029915;28;20038;-60
2021/01/30 01:23:14;;;;;;;0.50;0.50;;;;;;;5.50;84.24;93968.47;5029825;28;20041;-60
2021/01/30 01:25:39;;;;;;;1.60;0.60;;;;;;;5.58;84.37;93959.84;5030034;28;20048;-60
2021/01/30 01:28:04;;;;;;;1.00;0.60;;;;;;;5.37;84.13;93974.56;5029667;28;20603;-61
2021/01/30 01:30:30;;;;;;;1.13;0.60;;;;;;;5.37;83.71;93961.38;5030622;28;20116;-61
2021/01/30 01:32:55;;;;;;;3.33;0.82;;;;;;;5.45;83.77;93989.69;5029544;28;20081;-61
2021/01/30 01:35:25;;;;;;;1.55;0.60;;;;;;;5.56;82.68;93985.72;5029658;28;20124;-61
2021/01/30 01:37:51;;;;;;;0.52;0.30;;;;;;;5.55;82.01;93963.06;5029610;28;20491;-60
2021/01/30 01:40:20;;;;;;;1.30;0.68;;;;;;;5.59;81.56;93960.63;5028187;28;20503;-61
2021/01/30 01:42:45;;;;;;;1.83;0.82;;;;;;;5.86;81.17;93996.63;5028207;28;20038;-60
2021/01/30 01:45:11;;;;;;;0.93;0.43;;;;;;;5.63;81.05;93962.34;5031655;28;20087;-60
2021/01/30 01:47:41;;;;;;;1.27;0.50;;;;;;;5.70;79.98;93954.78;5029366;28;20465;-60
2021/01/30 01:50:35;;;;;;;1.27;0.65;;;;;;;6.09;79.79;93965.72;5029247;28;20034;-61
2021/01/30 01:53:15;;;;;;;1.55;0.50;;;;;;;5.76;80.36;93995.00;5027823;28;20053;-60
2021/01/30 01:55:45;;;;;;;1.30;0.57;;;;;;;5.98;79.78;93988.97;5029501;28;20092;-60
2021/01/30 01:58:12;;;;;;;0.60;0.38;;;;;;;5.72;80.88;94000.09;5029159;28;20115;-60
2021/01/30 02:00:38;;;;;;;1.70;0.50;;;;;;;4.85;81.44;93872.16;5029352;28;20099;-61
2021/01/30 02:03:03;;;;;;;1.50;0.63;;;;;;;5.57;81.40;93971.44;5031082;28;20472;-60
2021/01/30 02:05:31;;;;;;;1.23;0.40;;;;;;;5.56;82.01;94000.78;5029268;28;20045;-61
2021/01/30 02:07:59;;;;;;;1.50;0.52;;;;;;;5.62;82.04;93995.06;5028940;28;20038;-61
2021/01/30 02:10:27;;;;;;;2.08;0.45;;;;;;;5.42;82.36;93990.28;5029004;28;20123;-61
2021/01/30 02:12:57;;;;;;;1.13;0.20;;;;;;;5.21;82.71;93985.47;5028906;28;20124;-61
2021/01/30 02:15:23;;;;;;;0.47;0.30;;;;;;;5.52;82.13;94002.44;5030944;28;20368;-61
2021/01/30 02:17:51;;;;;;;1.20;0.40;;;;;;;5.45;83.46;94016.84;5028868;28;20064;-62
2021/01/30 02:20:41;;;;;;;0.70;0.25;;;;;;;5.24;83.81;94007.81;5028738;28;20053;-60
2021/01/30 02:24:02;;;;;;;0.52;0.40;;;;;;;5.42;83.00;94012.16;5028809;28;20061;-61
2021/01/30 02:26:27;;;;;;;0.70;0.25;;;;;;;5.27;83.31;94001.16;4998593;28;20033;-60
2021/01/30 02:29:31;;;;;;;1.20;0.45;;;;;;;5.37;82.28;94003.56;5028882;28;20052;-60
2021/01/30 02:32:21;;;;;;;0.52;0.30;;;;;;;5.33;81.24;94000.00;5028532;28;20495;-60
2021/01/30 02:35:06;;;;;;;0.32;0.32;;;;;;;5.35;81.32;94006.50;5028800;28;20057;-60
2021/01/30 02:37:38;;;;;;;0.35;0.20;;;;;;;5.43;80.10;94005.81;5028559;28;20045;-61
2021/01/30 02:40:10;;;;;;;0.63;0.20;;;;;;;5.48;79.85;94010.19;5028236;28;20499;-60
2021/01/30 02:42:42;;;;;;;1.15;0.57;;;;;;;5.41;79.02;93988.72;5028633;28;20515;-61
2021/01/30 02:45:17;;;;;;;0.10;0.10;;;;;;;5.58;78.47;94014.44;5030722;28;20029;-61
2021/01/30 02:47:46;;;;;;;0.63;0.10;;;;;;;5.37;78.79;93982.47;5028564;28;20499;-60
2021/01/30 02:50:16;;;;;;;1.65;0.30;;;;;;;5.69;78.40;94013.91;5028391;28;20490;-62
2021/01/30 02:52:44;;;;;;;0.52;0.30;;;;;;;5.65;78.13;94028.78;5027127;28;20064;-62
2021/01/30 02:55:12;;;;;;;1.13;0.30;;;;;;;5.71;78.41;94009.09;5027315;28;20065;-60
2021/01/30 02:57:40;;;;;;;0.35;0.28;;;;;;;5.50;78.35;93976.38;5028443;28;20514;-61
2021/01/30 03:00:09;;;;;;;0.65;0.10;;;;;;;5.62;78.83;94015.41;5030571;28;20426;-60
2021/01/30 03:02:34;;;;;;;0.52;0.25;;;;;;;5.16;77.75;93911.75;5028279;28;20049;-60
2021/01/30 03:05:02;;;;;;;0.30;0.15;;;;;;;5.57;78.35;93986.50;5028745;28;20045;-61
2021/01/30 03:07:33;;;;;;;0.30;0.30;;;;;;;5.70;78.28;94001.50;5028347;28;20128;-61
2021/01/30 03:10:15;;;;;;;1.03;0.47;;;;;;;5.95;78.21;94013.34;5027222;28;20116;-61
2021/01/30 03:12:50;;;;;;;1.58;0.50;;;;;;;5.86;77.54;94000.03;5028212;28;20275;-60
2021/01/30 03:15:32;;;;;;;0.75;0.38;;;;;;;5.87;78.42;94014.78;5030256;28;20026;-60
2021/01/30 03:18:00;;;;;;;0.90;0.30;;;;;;;5.92;77.72;94006.00;5028669;28;20044;-60
2021/01/30 03:20:27;;;;;;;0.70;0.35;;;;;;;5.67;79.09;94010.78;5028177;28;20044;-60
2021/01/30 03:22:54;;;;;;;1.38;0.32;;;;;;;5.84;78.67;93996.16;5028193;28;20030;-60
2021/01/30 03:25:22;;;;;;;0.85;0.28;;;;;;;5.84;77.42;93996.16;5028502;28;20119;-61
2021/01/30 03:27:48;;;;;;;1.17;0.40;;;;;;;5.67;77.95;93975.72;5026969;28;20348;-60
2021/01/30 03:30:14;;;;;;;0.95;0.40;;;;;;;5.72;77.48;93979.00;5030312;28;20639;-61
2021/01/30 03:32:40;;;;;;;2.50;0.60;;;;;;;5.66;77.46;93956.47;5026778;28;20498;-60
2021/01/30 03:35:09;;;;;;;0.85;0.38;;;;;;;5.77;77.65;93996.56;5028204;28;20041;-60
2021/01/30 03:37:35;;;;;;;0.70;0.45;;;;;;;5.64;78.11;93992.94;5029745;28;20038;-61
2021/01/30 03:40:00;;;;;;;1.13;0.50;;;;;;;5.63;78.64;93982.66;5031300;28;20487;-60
2021/01/30 03:42:25;;;;;;;1.00;0.47;;;;;;;5.46;78.74;93954.31;5032947;28;20031;-60
2021/01/30 03:44:51;;;;;;;0.85;0.45;;;;;;;5.49;78.00;93974.81;5030569;28;20064;-61
2021/01/30 03:47:16;;;;;;;0.82;0.40;;;;;;;5.53;78.67;93980.25;5031696;28;20399;-61
2021/01/30 03:49:42;;;;;;;1.13;0.40;;;;;;;5.28;79.26;93979.78;5030488;28;20698;-62
2021/01/30 03:52:07;;;;;;;1.70;0.50;;;;;;;5.43;78.36;93976.81;5031609;28;20084;-61
2021/01/30 03:54:32;;;;;;;1.50;0.40;;;;;;;5.53;79.17;93988.16;5031743;28;20494;-62
2021/01/30 03:56:58;;;;;;;0.38;0.22;;;;;;;5.41;79.13;94010.59;5033295;28;20032;-60
2021/01/30 03:59:23;;;;;;;2.00;0.38;;;;;;;5.58;78.99;93994.13;5031661;28;20049;-60
2021/01/30 04:01:48;;;;;;;1.20;0.50;;;;;;;5.59;78.97;94018.66;5031262;28;20033;-60
2021/01/30 04:04:14;;;;;;;2.17;0.40;;;;;;;5.58;78.13;93998.59;5031663;28;20029;-61
2021/01/30 04:06:48;;;;;;;1.27;0.40;;;;;;;5.51;77.80;93966.59;5030271;28;20078;-60
2021/01/30 04:09:15;;;;;;;2.72;0.80;;;;;;;5.66;77.78;94025.06;5033320;28;20028;-60
2021/01/30 04:11:41;;;;;;;1.60;0.55;;;;;;;5.78;76.94;94024.50;5031112;28;20415;-60
2021/01/30 04:14:07;;;;;;;0.30;0.28;;;;;;;5.31;77.63;93983.69;5031359;28;20475;-60
2021/01/30 04:16:32;;;;;;;2.83;0.60;;;;;;;5.50;77.97;94012.53;5031292;28;20099;-60
2021/01/30 04:18:57;;;;;;;2.05;0.75;;;;;;;5.64;76.92;94000.84;5031071;28;20136;-61
2021/01/30 04:21:23;;;;;;;2.38;0.60;;;;;;;5.55;77.39;94009.78;5032690;28;20041;-61
2021/01/30 04:23:49;;;;;;;4.30;0.65;;;;;;;5.74;76.02;93994.53;5029973;28;20403;-59
2021/01/30 04:26:15;;;;;;;1.95;0.70;;;;;;;5.62;75.78;93967.91;5031285;28;20083;-61
2021/01/30 04:28:40;;;;;;;2.33;0.57;;;;;;;5.59;75.80;93973.81;5030884;28;20492;-60
2021/01/30 04:31:07;;;;;;;3.13;0.63;;;;;;;5.55;76.33;93968.34;5030988;28;20041;-61
2021/01/30 04:33:32;;;;;;;2.63;0.63;;;;;;;5.53;76.02;93967.88;5030669;28;20025;-62
2021/01/30 04:35:57;;;;;;;1.65;0.57;;;;;;;5.19;76.34;93968.41;5032908;28;20025;-61
2021/01/30 04:38:23;;;;;;;1.17;0.60;;;;;;;5.51;75.30;93977.16;5030882;28;20037;-59
2021/01/30 04:40:56;;;;;;;4.05;0.85;;;;;;;5.36;74.50;93959.81;5030708;28;20379;-61
2021/01/30 04:43:29;;;;;;;3.10;0.73;;;;;;;5.29;74.59;93946.28;5029351;28;20056;-60
2021/01/30 04:45:54;;;;;;;2.10;0.52;;;;;;;5.45;75.25;93994.97;5030957;28;20038;-60
2021/01/30 04:48:45;;;;;;;3.17;1.00;;;;;;;5.33;75.60;93977.03;5031834;28;20379;-60
2021/01/30 04:51:35;;;;;;;3.15;0.43;;;;;;;5.00;75.56;93941.41;5030944;28;20388;-59
2021/01/30 04:54:16;;;;;;;4.32;0.40;;;;;;;5.37;75.07;93977.19;5031011;28;20042;-60
2021/01/30 04:56:55;;;;;;;5.82;0.80;;;;;;;5.52;74.31;93950.47;5030332;28;20045;-59
2021/01/30 04:59:32;;;;;;;5.22;1.38;;;;;;;5.52;74.02;93968.16;5030417;28;20080;-60
2021/01/30 05:02:16;;;;;;;2.00;0.60;;;;;;;5.17;74.99;93963.44;5030310;28;20045;-60
2021/01/30 05:04:44;;;;;;;4.20;1.05;;;;;;;5.39;74.64;93975.06;5030524;28;20391;-60
2021/01/30 05:07:34;;;;;;;4.07;1.00;;;;;;;5.44;74.20;93974.94;5030251;28;20045;-61
2021/01/30 05:10:03;;;;;;;5.20;0.73;;;;;;;5.41;74.34;93965.75;5029101;28;20091;-61
2021/01/30 05:12:52;;;;;;;4.55;0.70;;;;;;;5.50;74.10;93972.97;5032045;28;20025;-61
2021/01/30 05:15:28;;;;;;;1.80;0.60;;;;;;;5.57;73.70;93965.41;5029401;28;20526;-61
2021/01/30 05:18:13;;;;;;;6.55;1.13;;;;;;;5.50;75.45;93976.38;5029926;28;20041;-61
2021/01/30 05:20:46;;;;;;;3.60;0.55;;;;;;;5.26;76.17;93975.88;5028734;28;20089;-60
2021/01/30 05:23:13;;;;;;;4.78;1.20;;;;;;;5.31;75.55;93973.91;5030066;28;20136;-61
2021/01/30 05:25:38;;;;;;;5.15;0.65;;;;;;;5.33;75.88;93989.44;5030316;28;20503;-59
2021/01/30 05:28:12;;;;;;;3.53;0.70;;;;;;;5.34;75.98;93962.00;5029892;28;20033;-61
2021/01/30 05:30:50;;;;;;;5.65;1.30;;;;;;;5.16;76.98;93943.41;5030102;28;20022;-62
2021/01/30 05:33:26;;;;;;;3.47;0.73;;;;;;;5.28;76.84;93960.56;5031697;28;20080;-59
2021/01/30 05:36:13;;;;;;;7.03;1.15;;;;;;;5.17;77.14;93931.78;5029824;28;20492;-59
2021/01/30 05:38:49;;;;;;;2.67;0.90;;;;;;;5.30;77.06;93963.66;5029592;28;20403;-61
2021/01/30 05:41:45;;;;;;;6.32;0.95;;;;;;;5.33;76.81;93952.53;5029239;28;20050;-62
2021/01/30 05:44:19;;;;;;;4.00;1.00;;;;;;;5.25;77.54;93938.19;5029658;28;20091;-61
2021/01/30 05:46:45;;;;;;;4.03;0.88;;;;;;;5.32;77.29;93917.44;5029559;28;20057;-61
2021/01/30 05:49:15;;;;;;;7.63;0.90;;;;;;;5.51;76.54;93940.22;5029607;28;20120;-59
2021/01/30 05:51:54;;;;;;;7.05;1.13;;;;;;;5.57;76.47;93933.75;5029243;28;20052;-60
2021/01/30 05:54:20;;;;;;;5.13;1.00;;;;;;;5.41;77.02;93931.47;5031287;28;20036;-60
2021/01/30 05:56:46;;;;;;;4.38;0.85;;;;;;;5.09;76.94;93882.41;5029203;28;20037;-59
2021/01/30 05:59:16;;;;;;;6.47;1.20;;;;;;;5.27;77.08;93903.63;5029266;28;20029;-60
2021/01/30 06:01:42;;;;;;;5.43;1.25;;;;;;;5.44;76.55;93911.66;5028833;28;20443;-59
2021/01/30 06:04:11;;;;;;;6.15;1.25;;;;;;;5.73;76.84;93933.09;5029086;28;20037;-59
2021/01/30 06:06:50;;;;;;;3.25;0.88;;;;;;;5.60;77.55;93944.47;5029225;28;20113;-59
2021/01/30 06:09:31;;;;;;;8.18;1.17;;;;;;;5.50;78.19;93936.81;5031069;28;20025;-60
2021/01/30 06:11:57;;;;;;;4.57;1.10;;;;;;;5.26;78.00;93886.25;5029258;28;20115;-59
2021/01/30 06:14:28;;;;;;;5.28;1.10;;;;;;;5.51;78.25;93933.09;5028857;28;20487;-59
2021/01/30 06:16:59;;;;;;;5.60;1.08;;;;;;;5.63;77.04;93916.72;5028899;28;20407;-59
2021/01/30 06:19:27;;;;;;;2.25;0.82;;;;;;;5.65;77.63;93928.53;5028993;28;20041;-59
2021/01/30 06:22:22;;;;;;;8.88;1.25;;;;;;;6.19;75.76;93931.13;5027029;28;20037;-60
2021/01/30 06:24:48;;;;;;;3.38;1.02;;;;;;;5.36;77.50;93939.50;5028706;28;20431;-59
2021/01/30 06:27:26;;;;;;;5.10;1.40;;;;;;;5.58;76.67;93915.00;5030479;28;20105;-60
2021/01/30 06:30:01;;;;;;;4.63;1.50;;;;;;;5.62;76.48;93941.53;5029094;28;20063;-59
2021/01/30 06:32:34;;;;;;;5.30;1.30;;;;;;;5.77;76.21;93922.69;5027360;28;20060;-61
2021/01/30 06:35:05;;;;;;;4.43;1.05;;;;;;;5.57;76.51;93933.75;5028786;28;20120;-60
2021/01/30 06:37:43;;;;;;;4.57;1.00;;;;;;;5.71;75.79;93918.63;5028498;28;20065;-60
2021/01/30 06:40:25;;;;;;;6.97;1.15;;;;;;;5.86;75.02;93907.69;5028573;28;20113;-60
2021/01/30 06:42:55;;;;;;;5.65;2.08;;;;;;;5.84;74.46;93903.81;5028440;28;20130;-60
2021/01/30 06:45:46;;;;;;;4.80;1.15;;;;;;;5.83;74.47;93920.69;5030632;28;20030;-60
2021/01/30 06:48:29;;;;;;;5.43;1.03;;;;;;;5.70;74.29;93917.84;5024637;28;20441;-60
2021/01/30 06:50:54;;;;;;;7.15;1.05;;;;;;;5.56;74.15;93890.75;5027121;28;20573;-60
2021/01/30 06:53:28;;;;;;;6.75;1.02;;;;;;;5.71;74.12;93918.63;5028351;28;20029;-60
2021/01/30 06:55:54;;;;;;;3.10;1.00;;;;;;;5.72;74.10;93920.94;5028710;28;20036;-60
2021/01/30 06:58:24;;;;;;;4.38;1.13;;;;;;;5.77;73.67;93925.31;5026754;28;20033;-60
2021/01/30 07:00:51;;;;;;;4.30;1.00;;;;;;;5.91;73.32;93897.03;5028487;28;20100;-61
2021/01/30 07:03:52;;;;;;;3.35;0.88;;;;;;;5.55;73.26;93888.44;5030208;28;20057;-61
2021/01/30 07:06:36;;;;;;;3.95;0.75;;;;;;;5.63;73.29;93917.50;5028280;28;20048;-61
2021/01/30 07:09:24;;;;;;;4.18;0.98;;;;;;;5.47;73.39;93887.31;5028798;28;20065;-61
2021/01/30 07:12:03;;;;;;;5.80;1.05;;;;;;;5.61;73.42;93910.97;5027215;28;20046;-59
2021/01/30 07:15:07;;;;;;;5.53;1.10;;;;;;;5.91;73.19;93914.69;5031458;28;20053;-63
2021/01/30 07:17:58;;;;;;;5.00;1.25;;;;;;;6.07;71.43;93902.66;4990346;28;20488;-62
2021/01/30 07:20:37;;;;;;;3.67;0.70;;;;;;;5.78;72.52;93911.03;4990135;28;20397;-62
2021/01/30 07:23:05;;;;;;;3.97;1.33;;;;;;;5.84;71.71;93896.66;5021318;28;20048;-65
2021/01/30 07:25:39;;;;;;;5.55;1.35;;;;;;;5.99;71.68;93892.88;5033398;28;20069;-64
2021/01/30 07:28:23;;;;;;;8.20;1.35;;;;;;;5.89;71.24;93891.25;5033199;28;20120;-62
2021/01/30 07:30:57;;;;;;;8.60;1.45;;;;;;;6.04;71.80;93907.78;5033057;28;20065;-60
2021/01/30 07:33:29;;;;;;;3.42;0.80;;;;;;;5.81;71.64;93878.00;5034956;28;20035;-64
2021/01/30 07:36:18;;;;;;;3.58;1.05;;;;;;;5.79;71.43;93875.69;5033184;28;20036;-61
2021/01/30 07:39:08;;;;;;;6.22;1.55;;;;;;;5.95;71.19;93887.41;5031204;28;20049;-61
2021/01/30 07:41:48;;;;;;;5.57;0.95;;;;;;;5.95;71.68;93887.41;5032661;28;20049;-61
2021/01/30 07:44:38;;;;;;;4.05;1.35;;;;;;;6.12;71.00;93884.06;5031848;28;20030;-59
2021/01/30 07:47:15;;;;;;;5.35;1.00;;;;;;;6.01;70.48;93866.94;5032744;28;20033;-63
2021/01/30 07:49:48;;;;;;;6.15;1.30;;;;;;;6.22;70.40;93888.28;5032638;28;20030;-60
2021/01/30 07:52:23;;;;;;;7.72;1.85;;;;;;;6.07;70.73;93884.19;5031377;28;20403;-59
2021/01/30 07:54:51;;;;;;;6.05;1.10;;;;;;;5.90;70.72;93884.09;5031633;28;20079;-60
2021/01/30 07:57:38;;;;;;;5.18;1.20;;;;;;;6.11;70.24;93879.84;5034651;28;20029;-59
2021/01/30 08:00:20;;;;;;;8.18;1.20;;;;;;;6.66;68.41;93862.72;5033152;28;20081;-60
2021/01/30 08:03:03;;;;;;;3.67;1.07;;;;;;;6.04;70.24;93861.06;5032686;28;20042;-59
2021/01/30 08:06:06;;;;;;;7.82;1.45;;;;;;;6.32;69.99;93848.38;5032715;28;20140;-60
2021/01/30 08:08:38;;;;;;;6.32;1.30;;;;;;;6.15;69.76;93849.13;5032515;28;20060;-60
2021/01/30 08:11:26;;;;;;;4.63;1.30;;;;;;;6.24;69.66;93815.59;5032497;28;20424;-59
2021/01/30 08:14:04;;;;;;;3.45;1.20;;;;;;;6.21;69.51;93842.63;5016941;28;20167;-58
2021/01/30 08:16:51;;;;;;;5.50;1.42;;;;;;;6.47;68.76;93836.59;5032609;28;20049;-64
2021/01/30 08:19:42;;;;;;;9.48;1.63;;;;;;;6.85;67.97;93822.75;5032055;28;20037;-64
2021/01/30 08:22:17;;;;;;;4.43;1.00;;;;;;;6.37;68.50;93821.81;5032177;28;20414;-71
2021/01/30 08:24:56;;;;;;;5.20;1.45;;;;;;;6.69;67.86;93839.09;5032198;28;20045;-64
2021/01/30 08:27:28;;;;;;;7.18;1.60;;;;;;;6.50;68.07;93828.84;5033991;28;20014;-63
2021/01/30 08:30:00;;;;;;;5.65;1.52;;;;;;;6.52;67.46;93815.31;5032399;28;20065;-65
2021/01/30 08:32:26;;;;;;;7.22;1.70;;;;;;;6.84;67.76;93831.78;5032104;28;20045;-65
2021/01/30 08:34:53;;;;;;;5.85;1.48;;;;;;;6.69;67.55;93819.81;5032167;28;20041;-64
2021/01/30 08:37:18;;;;;;;6.68;1.50;;;;;;;6.36;68.32;93827.44;5031928;28;20046;-63
2021/01/30 08:40:03;;;;;;;8.10;1.88;;;;;;;6.78;67.30;93823.25;5030673;28;20025;-63
2021/01/30 08:42:30;;;;;;;7.53;1.45;;;;;;;6.53;68.21;93821.38;5032419;28;20029;-65
2021/01/30 08:44:58;;;;;;;4.15;1.33;;;;;;;7.06;66.57;93822.91;5032026;28;20106;-66
2021/01/30 08:47:29;;;;;;;4.00;1.30;;;;;;;6.99;66.79;93805.66;5031539;28;20037;-64
2021/01/30 08:50:10;;;;;;;6.43;1.48;;;;;;;7.41;65.15;93813.03;5029774;28;20110;-61
2021/01/30 08:52:50;;;;;;;3.33;1.10;;;;;;;7.23;65.50;93823.66;5030440;28;20036;-63
2021/01/30 08:55:24;;;;;;;4.80;1.50;;;;;;;7.19;65.64;93820.09;5030385;28;20623;-62
2021/01/30 08:57:50;;;;;;;6.10;1.50;;;;;;;6.95;66.00;93822.44;5031618;28;20027;-61
2021/01/30 09:00:27;;;;;;;6.60;1.27;;;;;;;7.07;65.98;93825.25;5033707;28;20544;-60
2021/01/30 09:02:53;;;;;;;6.45;1.40;;;;;;;7.14;66.02;93819.47;5030032;28;20074;-60
2021/01/30 09:05:25;;;;;;;6.57;1.67;;;;;;;7.17;65.98;93824.16;5031329;28;20053;-60
2021/01/30 09:07:55;;;;;;;6.30;1.60;;;;;;;7.49;64.74;93823.59;5030009;28;20491;-60
2021/01/30 09:10:36;;;;;;;5.05;1.50;;;;;;;7.40;65.48;93819.41;5031321;28;20041;-59
2021/01/30 09:13:03;;;;;;;6.43;1.90;;;;;;;7.99;63.68;93824.81;5031226;28;20037;-60
2021/01/30 09:15:37;;;;;;;5.43;1.48;;;;;;;7.71;64.35;93827.88;5033160;28;20108;-61
2021/01/30 09:18:10;;;;;;;5.50;1.30;;;;;;;7.19;65.13;93830.66;5031557;28;20070;-60
2021/01/30 09:20:50;;;;;;;3.03;1.42;;;;;;;7.17;65.38;93824.94;5030638;28;20029;-60
2021/01/30 09:23:43;;;;;;;5.57;1.60;;;;;;;7.63;64.13;93828.69;5031184;28;20083;-60
2021/01/30 09:26:20;;;;;;;6.43;1.60;;;;;;;8.34;61.89;93826.19;5031175;28;20099;-62
2021/01/30 09:28:45;;;;;;;6.43;1.45;;;;;;;7.97;62.95;93819.81;5030766;28;20033;-61
2021/01/30 09:31:16;;;;;;;4.82;1.33;;;;;;;7.48;64.63;93821.28;5030826;28;20040;-61
2021/01/30 09:34:17;;;;;;;3.70;1.35;;;;;;;7.62;63.83;93823.69;5029623;28;20120;-61
2021/01/30 09:36:47;;;;;;;5.95;1.48;;;;;;;7.78;63.15;93828.16;5030519;28;20036;-60
2021/01/30 09:39:34;;;;;;;6.20;1.33;;;;;;;7.51;63.78;93802.09;5032802;28;20025;-61
2021/01/30 09:42:16;;;;;;;9.90;2.10;;;;;;;7.69;63.17;93822.13;5030805;28;20042;-60
2021/01/30 09:44:41;;;;;;;5.00;1.25;;;;;;;7.87;63.12;93796.34;5030799;28;20041;-60
2021/01/30 09:47:18;;;;;;;6.32;1.60;;;;;;;8.59;60.91;93792.66;5030268;28;20111;-60
2021/01/30 09:49:48;;;;;;;4.47;1.45;;;;;;;7.76;61.82;93811.81;5029118;28;20051;-60
2021/01/30 09:52:18;;;;;;;4.68;1.50;;;;;;;7.71;63.03;93817.28;5028880;28;20033;-59
2021/01/30 09:54:43;;;;;;;6.72;1.42;;;;;;;7.84;62.26;93793.59;5029435;28;20083;-61
2021/01/30 09:57:19;;;;;;;9.27;1.73;;;;;;;7.93;61.90;93813.59;5031834;28;20418;-63
2021/01/30 09:59:46;;;;;;;5.10;2.28;;;;;;;8.45;61.16;93815.22;5027870;28;20142;-61
2021/01/30 10:02:20;;;;;;;4.20;1.60;;;;;;;8.45;60.91;93809.94;5029222;28;20507;-69
2021/01/30 10:04:46;;;;;;;3.42;1.25;;;;;;;8.29;61.21;93813.13;5029942;28;20120;-61
2021/01/30 10:07:14;;;;;;;5.22;1.92;;;;;;;8.37;61.16;93819.47;5029444;28;20117;-65
2021/01/30 10:09:50;;;;;;;4.93;1.23;;;;;;;8.43;60.90;93788.25;5030183;28;20590;-59
2021/01/30 10:12:20;;;;;;;3.03;0.90;;;;;;;7.92;60.96;93768.91;5031908;28;20025;-61
2021/01/30 10:14:49;;;;;;;4.10;1.65;;;;;;;7.68;62.08;93767.66;5030181;28;20152;-64
2021/01/30 10:17:41;;;;;;;5.68;1.48;;;;;;;8.24;60.06;93789.47;5029959;28;20050;-60
2021/01/30 10:20:11;;;;;;;3.15;1.10;;;;;;;8.40;59.35;93779.09;5029530;28;20048;-60
2021/01/30 10:22:43;;;;;;;7.15;1.85;;;;;;;8.62;59.76;93790.47;5029720;28;20624;-60
2021/01/30 10:25:16;;;;;;;3.65;1.23;;;;;;;8.28;59.92;93784.28;5029305;28;20040;-60
2021/01/30 10:27:42;;;;;;;3.65;1.50;;;;;;;7.87;60.85;93775.16;5029573;28;20040;-60
2021/01/30 10:30:11;;;;;;;3.90;1.50;;;;;;;8.24;61.16;93770.91;5031549;28;20695;-61
2021/01/30 10:32:42;;;;;;;3.45;1.38;;;;;;;8.03;59.62;93764.78;5029641;28;20077;-60
2021/01/30 10:35:15;;;;;;;4.25;1.50;;;;;;;7.94;60.45;93779.97;5028380;28;20518;-61
2021/01/30 10:37:45;;;;;;;5.55;1.20;;;;;;;8.09;59.03;93768.84;5029570;28;20037;-65
2021/01/30 10:40:27;;;;;;;5.07;1.40;;;;;;;8.11;59.29;93757.91;5029187;28;20042;-66
2021/01/30 10:42:58;;;;;;;7.15;1.60;;;;;;;8.32;59.30;93748.88;5028706;28;20044;-61
2021/01/30 10:45:27;;;;;;;4.85;1.63;;;;;;;8.50;58.31;93757.50;5030824;28;20037;-62
2021/01/30 10:48:04;;;;;;;2.60;1.00;;;;;;;8.27;58.11;93756.25;5027597;28;20038;-60
2021/01/30 10:50:37;;;;;;;4.90;0.88;;;;;;;7.70;58.81;93741.63;5028098;28;20033;-62
2021/01/30 10:53:15;;;;;;;5.47;1.45;;;;;;;7.87;59.35;93747.91;5028622;28;20041;-64
2021/01/30 10:55:40;;;;;;;5.13;1.42;;;;;;;7.92;59.05;93700.84;5028819;28;20044;-63
2021/01/30 10:58:19;;;;;;;3.25;1.00;;;;;;;7.86;57.35;93744.50;5028611;28;20038;-63
2021/01/30 11:01:05;;;;;;;6.53;1.67;;;;;;;8.05;58.91;93741.44;5028745;28;20053;-63
2021/01/30 11:03:44;;;;;;;4.30;1.02;;;;;;;7.96;57.43;93743.34;5028609;28;20029;-62
2021/01/30 11:06:33;;;;;;;3.90;1.10;;;;;;;8.30;57.51;93735.19;5030476;28;20513;-63
2021/01/30 11:09:16;;;;;;;4.82;1.25;;;;;;;8.51;56.88;93734.44;5028486;28;20491;-61
2021/01/30 11:11:44;;;;;;;8.10;1.80;;;;;;;8.63;57.04;93734.47;5028164;28;20041;-63
2021/01/30 11:14:25;;;;;;;8.05;1.38;;;;;;;7.93;58.55;93720.16;5027236;28;20399;-62
2021/01/30 11:16:50;;;;;;;3.70;1.00;;;;;;;7.62;59.25;93710.69;5028500;28;20034;-62
2021/01/30 11:19:32;;;;;;;5.47;1.58;;;;;;;7.57;59.39;93718.81;5028582;28;20036;-61
2021/01/30 11:22:10;;;;;;;7.35;1.13;;;;;;;7.94;59.38;93758.81;5028081;28;20033;-63
2021/01/30 11:24:46;;;;;;;7.32;2.00;;;;;;;7.80;59.72;93738.63;5027068;28;20025;-64
2021/01/30 11:27:33;;;;;;;4.82;1.20;;;;;;;8.05;58.91;93730.84;5030185;28;20061;-61
2021/01/30 11:30:19;;;;;;;4.55;1.00;;;;;;;7.94;58.72;93730.44;5027413;28;20038;-62
2021/01/30 11:32:50;;;;;;;3.35;1.30;;;;;;;8.21;58.70;93734.47;5028014;28;20064;-62
2021/01/30 11:35:21;;;;;;;5.03;1.15;;;;;;;8.02;58.05;93723.53;5028266;28;20045;-64
2021/01/30 11:37:48;;;;;;;5.57;1.07;;;;;;;8.24;58.66;93717.13;5026812;28;20049;-65
2021/01/30 11:40:14;;;;;;;4.80;0.88;;;;;;;8.31;57.28;93720.06;5008999;28;566380;-64
2021/01/30 11:42:39;;;;;;;3.92;1.48;;;;;;;8.07;57.35;93721.47;5027843;28;20025;-65
2021/01/30 11:45:06;;;;;;;4.32;1.15;;;;;;;8.50;56.62;93698.44;5031049;28;20037;-63
2021/01/30 11:47:31;;;;;;;2.83;0.95;;;;;;;8.53;56.63;93722.41;5028732;28;20065;-63
2021/01/30 11:49:56;;;;;;;5.35;1.60;;;;;;;8.41;56.49;93713.63;5028315;28;20073;-62
2021/01/30 11:52:25;;;;;;;6.10;1.75;;;;;;;9.06;55.24;93728.78;5028827;28;20080;-64
2021/01/30 11:54:50;;;;;;;3.92;1.63;;;;;;;8.28;56.96;93718.06;5028846;28;20061;-67
2021/01/30 11:57:16;;;;;;;7.63;1.50;;;;;;;8.31;57.33;93699.66;5030971;28;20459;-63
2021/01/30 11:59:41;;;;;;;3.47;1.08;;;;;;;8.55;56.78;93704.31;5032328;28;20080;-64
2021/01/30 12:02:14;;;;;;;8.32;1.50;;;;;;;8.69;56.12;93711.97;5032321;28;20042;-60
2021/01/30 12:04:40;;;;;;;4.95;1.48;;;;;;;8.98;54.63;93662.56;5032671;28;20044;-61
2021/01/30 12:07:05;;;;;;;5.38;1.10;;;;;;;8.54;55.75;93678.13;5032245;28;20041;-62